Time;durP1;ratioP1;P1;durP2;ratioP2;P2;SDS_P1;SDS_P2;PMS_P1;PMS_P2;Temp;Humidity;BMP_temperature;BMP_pressure;BME280_temperature;BME280_humidity;BME280_pressure;Samples;Min_cycle;Max_cycle;Signal;HPM_P1;HPM_P2
2023/08/11 07:46:42;;;;;;;7.22;1.40;;;15.30;63.90;;;;;;5091677;28;20567;-75
2023/08/11 07:49:09;;;;;;;6.78;1.55;;;15.20;64.40;;;;;;5083387;28;20188;-75
2023/08/11 07:51:39;;;;;;;5.70;1.70;;;15.20;64.20;;;;;;5071118;28;20028;-73
2023/08/11 07:54:06;;;;;;;2.63;1.43;;;15.20;64.30;;;;;;5088337;28;20519;-76
2023/08/11 07:56:34;;;;;;;9.82;1.70;;;15.20;64.50;;;;;;5064049;28;20046;-76
2023/08/11 07:59:01;;;;;;;5.85;1.65;;;15.20;64.10;;;;;;5110147;28;20032;-74
2023/08/11 08:01:29;;;;;;;5.40;1.63;;;15.10;64.10;;;;;;5103522;28;20047;-73
2023/08/11 08:03:56;;;;;;;4.85;1.48;;;15.10;63.80;;;;;;5096434;28;20035;-73
2023/08/11 08:06:23;;;;;;;3.38;1.30;;;15.10;63.80;;;;;;5091078;28;20846;-72
2023/08/11 08:08:51;;;;;;;4.47;1.40;;;15.10;63.90;;;;;;5091876;28;20043;-73
2023/08/11 08:11:19;;;;;;;3.15;1.33;;;15.00;64.30;;;;;;5103435;28;20028;-73
2023/08/11 08:13:46;;;;;;;7.82;1.67;;;15.10;64.30;;;;;;5068708;28;20413;-73
2023/08/11 08:16:16;;;;;;;5.70;1.58;;;15.00;64.40;;;;;;5097549;28;20060;-73
2023/08/11 08:18:43;;;;;;;5.93;1.80;;;15.00;64.50;;;;;;5072363;28;20035;-74
2023/08/11 08:21:11;;;;;;;9.02;1.85;;;15.00;64.70;;;;;;5055226;28;20040;-73
2023/08/11 08:23:39;;;;;;;5.35;1.77;;;15.00;64.60;;;;;;5082317;28;20092;-73
2023/08/11 08:26:07;;;;;;;3.42;1.52;;;15.00;64.40;;;;;;5074669;28;20481;-74
2023/08/11 08:28:36;;;;;;;4.72;1.50;;;15.00;64.50;;;;;;5110201;28;20085;-73
2023/08/11 08:31:03;;;;;;;4.15;1.75;;;15.00;64.50;;;;;;5089476;28;20054;-74
2023/08/11 08:33:31;;;;;;;3.72;2.03;;;15.00;64.60;;;;;;5080588;28;20064;-74
2023/08/11 08:35:58;;;;;;;5.68;1.90;;;14.90;64.50;;;;;;5089757;28;20130;-73
2023/08/11 08:38:25;;;;;;;6.25;1.92;;;14.90;64.80;;;;;;5090627;28;20043;-74
2023/08/11 08:40:52;;;;;;;4.38;1.98;;;14.80;64.80;;;;;;5110160;28;20114;-72
2023/08/11 08:43:19;;;;;;;4.90;2.17;;;14.80;64.90;;;;;;5074484;28;20044;-76
2023/08/11 11:32:19;;;;;;;;;;;13.70;70.00;;;;;;5106215;28;20558;-76
2023/08/11 11:34:47;;;;;;;5.05;1.80;;;13.60;69.90;;;;;;5091357;28;19915;-75
2023/08/11 11:37:14;;;;;;;2.90;1.73;;;13.60;70.00;;;;;;5071755;28;20078;-76
2023/08/11 11:39:41;;;;;;;7.05;2.05;;;13.60;70.10;;;;;;5074665;28;20107;-76
2023/08/11 11:42:12;;;;;;;6.18;2.65;;;13.60;70.40;;;;;;5073956;28;20489;-73
2023/08/11 11:44:41;;;;;;;3.47;1.70;;;13.50;70.90;;;;;;5097956;28;20039;-74
2023/08/11 11:47:08;;;;;;;7.50;1.85;;;13.50;71.00;;;;;;5087153;28;20035;-76
2023/08/11 11:49:36;;;;;;;5.28;1.83;;;13.50;70.90;;;;;;5075262;28;20035;-76
2023/08/11 11:52:03;;;;;;;6.78;1.60;;;13.50;71.10;;;;;;5091074;28;20036;-75
2023/08/11 11:54:33;;;;;;;5.57;1.85;;;13.40;71.20;;;;;;5059886;28;20063;-75
2023/08/11 11:57:05;;;;;;;5.80;2.58;;;13.40;71.50;;;;;;5072255;28;20051;-75
2023/08/11 11:59:33;;;;;;;4.60;2.28;;;13.30;71.60;;;;;;5105762;28;20137;-75
2023/08/11 12:02:01;;;;;;;6.55;2.42;;;13.30;71.90;;;;;;5093058;28;20549;-75
2023/08/11 12:04:28;;;;;;;6.20;2.08;;;13.30;72.20;;;;;;5094769;28;20032;-76
2023/08/11 12:06:55;;;;;;;4.88;1.95;;;13.30;72.50;;;;;;5049713;28;20043;-75
2023/08/11 12:09:22;;;;;;;6.10;2.20;;;13.30;72.80;;;;;;5090027;28;20060;-76
2023/08/11 12:11:49;;;;;;;3.60;1.70;;;13.20;73.10;;;;;;5072486;28;20100;-76
2023/08/11 12:14:17;;;;;;;4.93;1.77;;;13.20;73.00;;;;;;5087279;28;20516;-78
2023/08/11 12:16:44;;;;;;;6.25;1.63;;;13.20;72.70;;;;;;5090076;28;20088;-76
2023/08/11 12:19:12;;;;;;;4.32;1.58;;;13.20;72.90;;;;;;5090520;28;20043;-78
2023/08/11 12:21:39;;;;;;;4.30;1.60;;;13.20;73.10;;;;;;5077736;28;20482;-75
2023/08/11 12:24:09;;;;;;;6.57;1.90;;;13.20;73.10;;;;;;5094018;28;20059;-76
2023/08/11 12:26:36;;;;;;;9.05;1.88;;;13.20;73.20;;;;;;5097655;28;20042;-74
2023/08/11 12:29:05;;;;;;;7.28;1.60;;;13.20;73.30;;;;;;5104567;28;20042;-76
2023/08/11 12:31:32;;;;;;;5.05;1.67;;;13.20;73.10;;;;;;5105612;28;20094;-76
2023/08/11 12:33:59;;;;;;;3.72;1.75;;;13.20;73.00;;;;;;5105707;28;20098;-78
2023/08/11 12:36:27;;;;;;;3.30;1.40;;;13.20;73.20;;;;;;5071965;28;20520;-76
2023/08/11 12:38:54;;;;;;;7.05;1.60;;;13.20;73.20;;;;;;5054485;28;20032;-77
2023/08/11 12:41:21;;;;;;;4.15;1.70;;;13.10;73.30;;;;;;5110954;27;20036;-76
2023/08/11 12:43:49;;;;;;;8.10;1.73;;;13.10;73.30;;;;;;5094615;28;20030;-75
2023/08/11 12:46:16;;;;;;;6.25;1.70;;;13.10;73.70;;;;;;5087548;28;20032;-75
2023/08/11 12:48:43;;;;;;;5.22;1.65;;;13.00;73.80;;;;;;5091614;28;20047;-75
2023/08/11 12:51:10;;;;;;;3.10;1.50;;;13.00;73.90;;;;;;5062743;28;20103;-75
2023/08/11 12:53:37;;;;;;;5.55;1.73;;;13.00;74.30;;;;;;5094222;28;20070;-75
2023/08/11 12:56:05;;;;;;;5.13;1.70;;;13.00;74.40;;;;;;5060418;28;20032;-75
2023/08/11 12:58:32;;;;;;;6.28;2.28;;;12.90;74.50;;;;;;5077328;28;20469;-75
2023/08/11 13:01:00;;;;;;;4.53;2.00;;;12.90;74.70;;;;;;5057205;28;20043;-75
2023/08/11 13:03:27;;;;;;;5.30;2.15;;;12.90;74.80;;;;;;5111767;28;20040;-75
2023/08/11 13:05:55;;;;;;;4.15;1.83;;;12.90;74.90;;;;;;5077350;28;20034;-75
2023/08/11 13:08:22;;;;;;;6.03;1.58;;;12.90;75.00;;;;;;5089387;28;20043;-75
2023/08/11 13:10:49;;;;;;;8.15;2.13;;;12.80;75.30;;;;;;5111247;28;20027;-76
2023/08/11 13:13:16;;;;;;;6.82;1.70;;;12.80;75.40;;;;;;5073219;28;20714;-76
2023/08/11 13:15:45;;;;;;;3.88;1.88;;;12.70;75.50;;;;;;5060387;28;20082;-75
2023/08/11 13:18:12;;;;;;;6.53;2.00;;;12.70;75.50;;;;;;5109323;28;20077;-76
2023/08/11 13:20:39;;;;;;;4.55;1.88;;;12.70;75.60;;;;;;5112049;28;20036;-75
2023/08/11 13:23:07;;;;;;;5.82;1.70;;;12.70;75.70;;;;;;5076536;28;20031;-76
2023/08/11 13:25:34;;;;;;;6.95;2.20;;;12.70;75.90;;;;;;5058305;28;20047;-76
2023/08/11 13:28:01;;;;;;;7.07;2.55;;;12.70;76.10;;;;;;5057535;28;20059;-76
2023/08/11 13:30:30;;;;;;;9.13;2.80;;;12.70;76.10;;;;;;5104058;28;20079;-76
2023/08/11 13:33:00;;;;;;;9.20;3.90;;;12.70;76.20;;;;;;5095975;28;20074;-75
2023/08/11 13:35:28;;;;;;;6.55;3.08;;;12.70;76.20;;;;;;5085259;28;20458;-76
2023/08/11 13:37:55;;;;;;;9.48;2.75;;;12.70;76.30;;;;;;5060362;28;20039;-76
2023/08/11 13:40:23;;;;;;;7.10;2.72;;;12.60;76.40;;;;;;5094747;28;20696;-76
2023/08/11 13:42:50;;;;;;;7.60;2.80;;;12.60;76.50;;;;;;5092312;28;20027;-76
2023/08/11 13:45:18;;;;;;;8.00;2.70;;;12.50;76.70;;;;;;5083864;28;20123;-76
2023/08/11 13:47:45;;;;;;;6.20;3.28;;;12.50;76.80;;;;;;5059831;28;20131;-76
2023/08/11 13:50:12;;;;;;;5.15;2.65;;;12.50;77.00;;;;;;5079797;28;20488;-76
2023/08/11 14:11:26;;;;;;;6.30;2.67;;;12.40;79.50;;;;;;5094670;28;20473;-75
2023/08/11 14:13:53;;;;;;;5.47;2.45;;;12.30;79.50;;;;;;5046679;28;20489;-76
2023/08/11 14:16:20;;;;;;;6.05;2.33;;;12.20;79.70;;;;;;5081858;28;20046;-75
2023/08/11 14:18:47;;;;;;;10.73;2.45;;;12.20;79.90;;;;;;5091067;28;20031;-75
2023/08/11 14:21:17;;;;;;;4.78;2.40;;;12.20;79.60;;;;;;5113774;28;20039;-75
2023/08/11 14:23:45;;;;;;;5.35;2.53;;;12.20;79.30;;;;;;5082968;28;20027;-76
2023/08/11 14:26:12;;;;;;;4.45;2.40;;;12.10;79.40;;;;;;5079705;28;20031;-76
2023/08/11 14:28:39;;;;;;;4.40;2.42;;;12.10;79.20;;;;;;5092459;28;20032;-76
2023/08/11 14:31:06;;;;;;;7.22;2.58;;;12.10;79.40;;;;;;5087203;28;20034;-76
2023/08/11 14:33:34;;;;;;;8.48;2.38;;;12.00;79.60;;;;;;5070746;28;20027;-76
2023/08/11 14:36:02;;;;;;;6.70;2.17;;;12.00;79.60;;;;;;5092288;28;20093;-76
2023/08/11 14:38:29;;;;;;;5.97;2.30;;;12.10;79.70;;;;;;5075293;28;20044;-75
2023/08/11 14:40:56;;;;;;;5.68;2.40;;;12.00;80.20;;;;;;5076146;28;20059;-75
2023/08/11 14:43:23;;;;;;;4.68;2.40;;;11.90;80.50;;;;;;5075574;28;20043;-75
2023/08/11 14:45:50;;;;;;;4.82;2.25;;;11.90;80.60;;;;;;5059655;28;20024;-76
2023/08/11 14:48:19;;;;;;;4.30;2.10;;;11.90;81.10;;;;;;5089558;28;20032;-75
2023/08/11 14:50:46;;;;;;;4.82;2.40;;;11.90;81.50;;;;;;5069258;28;20031;-75
2023/08/11 14:53:14;;;;;;;7.85;2.97;;;11.90;82.00;;;;;;5114023;28;20028;-75
2023/08/11 14:55:41;;;;;;;6.65;2.60;;;11.90;82.10;;;;;;5113663;28;20061;-75
2023/08/11 14:58:09;;;;;;;6.60;2.63;;;11.90;82.10;;;;;;5093698;28;20102;-75
2023/08/11 15:00:36;;;;;;;7.57;2.88;;;11.90;82.20;;;;;;5113867;28;20027;-75
2023/08/11 15:03:03;;;;;;;5.38;2.20;;;11.70;82.60;;;;;;5098394;27;20032;-75
2023/08/11 15:05:31;;;;;;;8.85;2.67;;;11.70;82.70;;;;;;5074857;28;20035;-75
2023/08/11 15:07:58;;;;;;;6.05;2.75;;;11.70;82.40;;;;;;5106838;28;20508;-75
2023/08/11 15:10:25;;;;;;;8.32;2.95;;;11.60;82.50;;;;;;5097391;28;20089;-75
2023/08/11 15:12:52;;;;;;;5.28;2.75;;;11.60;82.40;;;;;;5114164;28;20114;-75
2023/08/11 15:15:20;;;;;;;10.52;3.05;;;11.60;82.30;;;;;;5077961;28;20088;-75
2023/08/11 15:17:47;;;;;;;7.30;2.75;;;11.60;82.10;;;;;;5079017;28;20043;-75
2023/08/11 15:20:14;;;;;;;6.50;2.92;;;11.50;81.90;;;;;;5096305;28;20371;-75
2023/08/11 15:22:41;;;;;;;9.85;3.05;;;11.50;81.90;;;;;;5087093;28;20024;-75
2023/08/11 15:25:09;;;;;;;7.40;3.30;;;11.50;81.70;;;;;;5052837;28;20032;-75
2023/08/11 15:27:36;;;;;;;8.88;3.40;;;11.50;81.60;;;;;;5089636;28;20027;-75
2023/08/11 15:30:07;;;;;;;8.48;3.08;;;11.40;81.60;;;;;;5110611;28;20116;-75
2023/08/11 15:32:34;;;;;;;8.07;3.45;;;11.40;81.50;;;;;;5094114;28;20031;-75
2023/08/11 15:35:01;;;;;;;9.40;3.38;;;11.40;81.50;;;;;;5099033;28;20071;-75
2023/08/11 15:37:29;;;;;;;7.82;2.97;;;11.40;81.40;;;;;;5080946;28;20448;-75
2023/08/11 15:39:56;;;;;;;8.32;3.03;;;11.30;81.20;;;;;;5075273;28;20036;-75
2023/08/11 15:42:23;;;;;;;10.18;3.47;;;11.30;81.20;;;;;;5104421;27;20050;-75
2023/08/11 15:44:50;;;;;;;10.05;3.33;;;11.30;80.90;;;;;;5088598;28;20037;-76
2023/08/11 15:47:17;;;;;;;10.88;3.50;;;11.40;81.10;;;;;;5093961;28;20039;-75
2023/08/11 15:49:45;;;;;;;6.88;3.25;;;11.30;81.00;;;;;;5100305;28;20044;-75
2023/08/11 15:52:12;;;;;;;9.30;3.83;;;11.30;81.10;;;;;;5113130;28;20036;-75
2023/08/11 15:54:39;;;;;;;6.60;3.40;;;11.30;80.90;;;;;;5090223;28;20040;-75
2023/08/11 15:57:06;;;;;;;6.15;3.22;;;11.20;81.10;;;;;;5070901;28;20039;-75
2023/08/11 15:59:34;;;;;;;8.82;3.70;;;11.20;81.10;;;;;;5093878;28;20034;-75
2023/08/11 16:02:01;;;;;;;9.80;3.50;;;11.30;81.00;;;;;;5057062;28;20490;-75
2023/08/11 16:04:28;;;;;;;11.25;4.03;;;11.20;81.20;;;;;;5083057;28;20043;-75
2023/08/11 16:06:55;;;;;;;8.88;3.40;;;11.20;81.70;;;;;;5102762;28;20036;-75
2023/08/11 16:09:22;;;;;;;6.53;3.30;;;11.10;81.60;;;;;;5111368;28;20066;-75
2023/08/11 16:11:52;;;;;;;7.95;3.92;;;11.10;82.00;;;;;;5086278;28;20040;-75
2023/08/11 16:14:20;;;;;;;7.15;3.60;;;11.00;81.90;;;;;;5083885;28;20036;-75
2023/08/11 16:16:47;;;;;;;10.00;3.88;;;11.00;82.10;;;;;;5089663;28;20044;-75
2023/08/11 16:19:15;;;;;;;9.10;4.00;;;11.00;81.90;;;;;;5062330;28;20043;-75
2023/08/11 16:21:42;;;;;;;8.48;3.63;;;11.00;81.90;;;;;;5093052;28;20544;-75
2023/08/11 16:24:10;;;;;;;8.25;4.15;;;11.00;81.70;;;;;;5092009;28;20122;-75
2023/08/11 16:26:37;;;;;;;7.93;3.83;;;11.00;81.60;;;;;;5093107;28;20036;-75
2023/08/11 16:29:05;;;;;;;7.40;3.67;;;10.90;81.50;;;;;;5085568;28;20058;-75
2023/08/11 16:31:32;;;;;;;10.15;3.75;;;10.90;81.50;;;;;;5078811;28;20125;-75
2023/08/11 16:33:59;;;;;;;8.07;3.65;;;10.90;81.50;;;;;;5074366;28;20491;-75
2023/08/11 16:36:27;;;;;;;10.07;3.85;;;10.90;81.30;;;;;;5098691;28;20362;-75
2023/08/11 16:38:54;;;;;;;10.18;4.00;;;10.90;81.30;;;;;;5093947;28;20118;-75
2023/08/11 16:41:21;;;;;;;14.93;4.20;;;10.90;81.30;;;;;;5112428;28;20513;-75
2023/08/11 16:43:49;;;;;;;11.25;4.05;;;10.80;80.90;;;;;;5112456;28;20034;-75
2023/08/11 16:46:18;;;;;;;7.32;3.88;;;10.80;80.60;;;;;;5112362;28;20034;-75
2023/08/11 16:48:46;;;;;;;8.18;3.80;;;10.80;80.80;;;;;;5083036;28;20028;-75
2023/08/11 16:51:14;;;;;;;12.98;4.20;;;10.80;80.80;;;;;;5091680;28;20036;-75
2023/08/11 16:53:41;;;;;;;14.07;4.03;;;10.70;80.80;;;;;;5107241;28;20367;-75
2023/08/11 16:56:09;;;;;;;12.13;4.80;;;10.80;80.90;;;;;;5091534;28;20032;-75
2023/08/11 16:58:36;;;;;;;15.18;4.18;;;10.80;80.90;;;;;;5066344;28;20486;-75
2023/08/11 17:01:04;;;;;;;12.18;4.30;;;10.80;80.80;;;;;;5091365;28;20432;-75
2023/08/11 17:03:31;;;;;;;9.18;4.03;;;10.70;81.10;;;;;;5094623;28;20031;-75
2023/08/11 17:05:58;;;;;;;12.95;4.18;;;10.70;81.10;;;;;;5096059;28;20032;-75
2023/08/11 17:08:26;;;;;;;10.13;3.95;;;10.70;81.30;;;;;;5105197;28;20059;-75
2023/08/11 17:10:53;;;;;;;11.82;4.38;;;10.70;81.30;;;;;;5079718;28;20044;-75
2023/08/11 17:13:21;;;;;;;10.48;4.20;;;10.70;81.50;;;;;;5077990;28;20029;-75
2023/08/11 17:15:48;;;;;;;8.90;4.40;;;10.70;81.90;;;;;;5092875;28;20035;-75
2023/08/11 17:18:15;;;;;;;9.32;4.13;;;10.70;81.60;;;;;;5115021;28;20093;-75
2023/08/11 17:20:42;;;;;;;8.50;4.00;;;10.70;81.40;;;;;;5115132;28;20100;-75
2023/08/11 17:23:09;;;;;;;10.07;3.97;;;10.70;81.20;;;;;;5087420;28;20085;-75
2023/08/11 17:25:37;;;;;;;9.40;3.78;;;10.60;80.90;;;;;;5100325;28;20032;-75
2023/08/11 17:28:04;;;;;;;9.20;4.03;;;10.60;80.60;;;;;;5103237;28;20090;-75
2023/08/11 17:30:32;;;;;;;9.13;4.47;;;10.60;80.70;;;;;;5113773;28;20043;-75
2023/08/11 17:32:59;;;;;;;12.95;3.92;;;10.50;80.90;;;;;;5089466;28;20482;-75
2023/08/11 17:35:26;;;;;;;13.30;4.20;;;10.50;80.60;;;;;;5121688;27;20031;-75
2023/08/11 17:37:53;;;;;;;7.57;3.80;;;10.50;80.80;;;;;;5113411;28;20051;-75
2023/08/11 17:40:21;;;;;;;9.23;3.92;;;10.50;80.60;;;;;;5100788;28;20039;-75
2023/08/11 17:42:48;;;;;;;10.35;4.55;;;10.40;81.00;;;;;;5110747;28;20445;-75
2023/08/11 17:45:15;;;;;;;8.20;3.80;;;10.40;81.30;;;;;;5111870;28;20028;-75
2023/08/11 17:47:46;;;;;;;11.30;4.20;;;10.40;81.80;;;;;;5113867;28;20024;-75
2023/08/11 17:50:13;;;;;;;8.35;3.85;;;10.30;82.20;;;;;;5111326;28;20101;-75
2023/08/11 17:52:40;;;;;;;11.13;3.85;;;10.30;82.50;;;;;;5115098;28;20111;-75
2023/08/11 17:55:08;;;;;;;7.45;3.90;;;10.30;82.40;;;;;;5092986;28;20036;-75
2023/08/11 17:57:35;;;;;;;11.25;4.20;;;10.20;82.40;;;;;;5108510;28;20054;-75
2023/08/11 18:00:05;;;;;;;14.45;4.57;;;10.20;82.60;;;;;;5080450;28;20036;-75
2023/08/11 18:02:32;;;;;;;8.85;4.18;;;10.20;82.60;;;;;;5096403;28;20027;-75
2023/08/11 18:05:00;;;;;;;9.35;4.05;;;10.20;83.20;;;;;;5113038;28;20039;-75
2023/08/11 18:07:27;;;;;;;13.18;4.03;;;10.20;83.30;;;;;;5102928;28;20510;-75
2023/08/11 18:09:54;;;;;;;7.35;3.80;;;10.10;83.30;;;;;;5076810;28;20039;-75
2023/08/11 18:12:24;;;;;;;10.48;4.30;;;10.20;83.80;;;;;;5093055;28;20039;-75
2023/08/11 18:15:00;;;;;;;10.10;4.10;;;10.20;83.90;;;;;;5089860;28;20498;-75
2023/08/11 18:17:27;;;;;;;9.90;5.57;;;10.20;84.10;;;;;;5075087;28;20040;-75
2023/08/11 18:19:54;;;;;;;9.10;4.47;;;10.20;84.00;;;;;;5077597;28;20115;-75
